Ashton, West Virginia
Current Conditions -  °F | °C
As of 12:55 PM on Monday 24 Nov 2014 (Local Time) from K3I2 Reporting Station
Broken Clouds Broken Clouds  
Wind Chill: 68°   Ceiling: 7500
Heat Index: 68°   Visibility: 10mi
Dew Point: 45°   Wind: 33mph
Humidity: 43%   Direction: 230°SW
Pressure: 29.5"   Gusts: 44mph
Location:  38.62°N, 82.16°W
Report Text: K3I2 241755Z AUTO 23029G38KT 10SM SCT060 BKN075 BKN095 20/07 A2950 RMK AO2
Loading
Personal Weather Stations






























Interactive Weather Map New forecast layout! Learn more

10-Day Weather Forecast

Advertisements
Track Severe Weather on mobile